Time;durP1;ratioP1;P1;durP2;ratioP2;P2;SDS_P1;SDS_P2;PMS_P1;PMS_P2;Temp;Humidity;BMP_temperature;BMP_pressure;BME280_temperature;BME280_humidity;BME280_pressure;Samples;Min_cycle;Max_cycle;Signal;HPM_P1;HPM_P2
2021/11/29 00:00:17;;;;;;;3.53;1.00;;;3.70;99.90;;;;;;5010915;28;20214;-83
2021/11/29 00:02:48;;;;;;;3.67;0.70;;;3.70;99.90;;;;;;5009166;28;20211;-84
2021/11/29 00:05:15;;;;;;;3.10;0.80;;;3.80;99.90;;;;;;5009604;28;20199;-86
2021/11/29 00:07:42;;;;;;;1.73;0.93;;;3.70;99.90;;;;;;5011089;28;20603;-85
2021/11/29 00:10:09;;;;;;;3.07;0.80;;;3.70;99.90;;;;;;4990575;28;20247;-89
2021/11/29 00:12:37;;;;;;;1.23;0.60;;;3.60;99.90;;;;;;4991826;28;20496;-90
2021/11/29 00:15:07;;;;;;;3.90;0.80;;;3.60;99.90;;;;;;4991556;28;20219;-89
2021/11/29 00:17:34;;;;;;;4.50;0.80;;;3.50;99.90;;;;;;4990893;28;20235;-89
2021/11/29 00:20:01;;;;;;;1.47;0.60;;;3.40;99.90;;;;;;4991262;28;20242;-85
2021/11/29 00:22:27;;;;;;;2.27;0.70;;;3.30;99.90;;;;;;5004279;28;20226;-89
2021/11/29 00:24:54;;;;;;;1.90;0.60;;;3.30;99.90;;;;;;5015473;28;20206;-88
2021/11/29 00:27:21;;;;;;;1.23;0.53;;;3.20;99.90;;;;;;5014297;28;20211;-88
2021/11/29 00:29:48;;;;;;;3.20;0.70;;;3.10;99.90;;;;;;5014769;28;20231;-86
2021/11/29 00:32:16;;;;;;;1.73;0.60;;;3.10;99.90;;;;;;5015271;28;20200;-89
2021/11/29 00:34:43;;;;;;;1.57;0.53;;;3.00;99.90;;;;;;5014686;28;20603;-88
2021/11/29 00:37:10;;;;;;;2.07;0.50;;;3.00;99.90;;;;;;5015599;28;20615;-87
2021/11/29 00:39:37;;;;;;;0.93;0.60;;;2.90;99.90;;;;;;5014056;28;20211;-83
2021/11/29 00:42:04;;;;;;;0.93;0.60;;;2.90;99.90;;;;;;5014494;28;20200;-87
2021/11/29 00:44:31;;;;;;;1.63;0.50;;;2.80;99.90;;;;;;5014823;28;20207;-90
2021/11/29 00:46:58;;;;;;;2.20;0.70;;;2.90;99.90;;;;;;5014179;28;20226;-89
2021/11/29 00:49:26;;;;;;;3.03;1.00;;;2.90;99.90;;;;;;5013996;28;20368;-84
2021/11/29 00:51:53;;;;;;;7.03;1.20;;;2.80;99.90;;;;;;5013714;28;20539;-88
2021/11/29 00:54:20;;;;;;;1.47;0.90;;;3.00;99.90;;;;;;5013925;28;20198;-89
2021/11/29 00:56:47;;;;;;;3.20;0.90;;;3.00;99.90;;;;;;5013907;28;20234;-88
2021/11/29 00:59:14;;;;;;;5.60;1.30;;;3.10;99.90;;;;;;5014313;28;20195;-83
2021/11/29 01:01:40;;;;;;;4.33;1.17;;;3.20;99.90;;;;;;5013388;28;20195;-89
2021/11/29 01:04:07;;;;;;;7.73;1.23;;;3.30;99.90;;;;;;5014985;28;20218;-87
2021/11/29 01:06:35;;;;;;;4.70;1.30;;;3.40;99.90;;;;;;5013068;28;20562;-88
2021/11/29 01:09:03;;;;;;;3.43;1.20;;;3.40;99.90;;;;;;5013471;28;20638;-86
2021/11/29 01:11:30;;;;;;;4.13;1.10;;;3.50;99.90;;;;;;5012726;28;20211;-90
2021/11/29 01:13:57;;;;;;;3.17;1.10;;;3.50;99.90;;;;;;5011746;28;20211;-86
2021/11/29 01:16:25;;;;;;;6.70;1.90;;;3.50;99.90;;;;;;5004101;28;20236;-85
2021/11/29 01:18:51;;;;;;;6.57;1.00;;;3.50;99.90;;;;;;4994792;28;20204;-85
2021/11/29 01:21:18;;;;;;;5.87;1.30;;;3.60;99.90;;;;;;4992704;28;20207;-84
2021/11/29 01:23:47;;;;;;;7.17;1.27;;;3.70;99.90;;;;;;5013305;28;20278;-87
2021/11/29 01:26:14;;;;;;;12.90;2.90;;;3.90;99.90;;;;;;5014082;28;20207;-84
2021/11/29 01:28:43;;;;;;;5.73;1.30;;;4.00;99.90;;;;;;5011704;28;20231;-84
2021/11/29 01:31:10;;;;;;;12.50;2.00;;;4.20;99.90;;;;;;5011235;28;20588;-88
2021/11/29 01:33:37;;;;;;;3.53;0.90;;;4.30;99.90;;;;;;5013544;28;20893;-89
2021/11/29 01:36:05;;;;;;;6.60;1.07;;;4.40;99.90;;;;;;5013572;28;20210;-83
2021/11/29 01:38:32;;;;;;;4.10;1.20;;;4.50;99.90;;;;;;5013534;28;20587;-85
2021/11/29 01:41:00;;;;;;;7.63;2.00;;;4.60;99.90;;;;;;5013511;28;20227;-82
2021/11/29 01:43:28;;;;;;;6.93;1.20;;;4.60;99.90;;;;;;5012564;28;20218;-87
2021/11/29 01:45:56;;;;;;;5.87;1.17;;;4.60;99.90;;;;;;5014047;28;20218;-87
2021/11/29 01:48:24;;;;;;;8.53;2.27;;;4.60;99.90;;;;;;5012755;28;20199;-85
2021/11/29 01:50:54;;;;;;;7.30;1.47;;;4.70;99.90;;;;;;5012482;28;20214;-89
2021/11/29 01:53:23;;;;;;;4.47;0.93;;;4.70;99.90;;;;;;5012955;28;20191;-88
2021/11/29 01:55:52;;;;;;;6.60;1.17;;;4.70;99.90;;;;;;5012706;28;20210;-89
2021/11/29 01:58:21;;;;;;;7.87;1.30;;;4.80;99.90;;;;;;5009678;28;20203;-85
2021/11/29 02:00:50;;;;;;;3.50;1.10;;;4.90;99.90;;;;;;4993454;28;20203;-84
2021/11/29 02:03:18;;;;;;;7.30;1.87;;;4.90;99.90;;;;;;4992513;28;20219;-88
2021/11/29 02:05:45;;;;;;;4.60;1.20;;;5.00;99.90;;;;;;4992728;28;20215;-86
2021/11/29 02:08:12;;;;;;;9.90;2.30;;;5.00;99.90;;;;;;5004398;28;20207;-86
2021/11/29 02:10:39;;;;;;;8.77;1.80;;;5.00;99.90;;;;;;5011649;28;20231;-84
2021/11/29 02:13:06;;;;;;;7.23;1.60;;;5.00;99.90;;;;;;5011513;28;20245;-91
2021/11/29 02:15:37;;;;;;;7.87;1.43;;;5.10;99.90;;;;;;5009702;28;20199;-87
2021/11/29 02:18:04;;;;;;;4.40;1.13;;;5.10;99.90;;;;;;5010253;28;20219;-87
2021/11/29 02:20:34;;;;;;;6.50;2.13;;;5.10;99.90;;;;;;5011343;28;20203;-83
2021/11/29 02:23:04;;;;;;;7.23;0.93;;;5.20;99.90;;;;;;5010551;28;20691;-88
2021/11/29 02:25:31;;;;;;;2.00;0.90;;;5.20;99.90;;;;;;5005621;28;20215;-90
2021/11/29 02:27:58;;;;;;;4.73;1.00;;;5.20;99.90;;;;;;4991222;28;20235;-87
2021/11/29 02:30:26;;;;;;;3.40;0.90;;;5.20;99.90;;;;;;4991201;28;20228;-85
2021/11/29 02:32:54;;;;;;;5.40;1.23;;;5.20;99.90;;;;;;4990995;28;20215;-85
2021/11/29 02:35:22;;;;;;;6.93;1.17;;;5.10;99.90;;;;;;4989848;28;20236;-87
2021/11/29 02:37:51;;;;;;;5.10;1.63;;;5.20;99.90;;;;;;5008144;28;20207;-85
2021/11/29 02:40:18;;;;;;;5.10;1.30;;;5.20;99.90;;;;;;5010212;28;20203;-86
2021/11/29 02:42:45;;;;;;;6.23;1.20;;;5.30;99.90;;;;;;5010273;28;20208;-87
2021/11/29 02:45:12;;;;;;;3.80;1.67;;;5.30;99.90;;;;;;5010211;28;20203;-86
2021/11/29 02:47:39;;;;;;;6.30;1.90;;;5.20;99.90;;;;;;5011327;28;20203;-82
2021/11/29 02:50:06;;;;;;;6.73;1.20;;;5.30;99.90;;;;;;5011235;28;20226;-83
2021/11/29 02:52:33;;;;;;;6.13;1.77;;;5.30;99.90;;;;;;5009702;28;20215;-87
2021/11/29 02:55:03;;;;;;;6.90;1.47;;;5.30;99.90;;;;;;5011872;28;20210;-85
2021/11/29 02:57:30;;;;;;;6.23;1.63;;;5.30;99.90;;;;;;5011288;28;20206;-85
2021/11/29 02:59:57;;;;;;;8.20;2.20;;;5.50;99.90;;;;;;5006604;28;20212;-85
2021/11/29 03:02:24;;;;;;;8.20;2.03;;;5.60;99.90;;;;;;4989402;28;20528;-88
2021/11/29 03:04:51;;;;;;;5.33;1.20;;;5.60;99.90;;;;;;4998526;28;20203;-86
2021/11/29 03:07:18;;;;;;;10.17;1.43;;;5.50;99.90;;;;;;5010590;28;20209;-84
2021/11/29 03:09:46;;;;;;;2.67;0.70;;;5.50;99.90;;;;;;5011746;28;20226;-83
2021/11/29 03:12:15;;;;;;;2.53;0.70;;;5.30;99.90;;;;;;5010999;28;20211;-87
2021/11/29 03:14:42;;;;;;;1.17;0.80;;;5.20;99.90;;;;;;5010328;28;20497;-84
2021/11/29 03:17:11;;;;;;;4.37;0.70;;;5.20;99.90;;;;;;5011458;28;20254;-84
2021/11/29 03:19:40;;;;;;;2.70;0.90;;;5.10;99.90;;;;;;5012285;28;20206;-86
2021/11/29 03:22:09;;;;;;;6.17;1.40;;;5.00;99.90;;;;;;5009555;28;20542;-85
2021/11/29 03:24:37;;;;;;;4.07;1.20;;;5.10;99.90;;;;;;5009961;28;20242;-84
2021/11/29 03:27:05;;;;;;;7.77;1.27;;;5.10;99.90;;;;;;5011389;28;20222;-86
2021/11/29 03:29:33;;;;;;;8.03;1.97;;;5.20;99.90;;;;;;5011592;28;20319;-84
2021/11/29 03:32:03;;;;;;;6.03;1.40;;;5.30;99.90;;;;;;5012748;28;20603;-84
2021/11/29 03:34:31;;;;;;;5.20;1.80;;;5.30;99.90;;;;;;4992808;28;20210;-86
2021/11/29 03:36:59;;;;;;;9.10;1.53;;;5.20;99.90;;;;;;4991814;28;20211;-85
2021/11/29 03:39:28;;;;;;;7.57;1.60;;;5.20;99.90;;;;;;4992324;28;20208;-85
2021/11/29 03:41:57;;;;;;;7.83;2.23;;;5.20;99.90;;;;;;4991555;28;20210;-84
2021/11/29 03:44:24;;;;;;;8.13;1.67;;;5.10;99.90;;;;;;5001369;28;20196;-87
2021/11/29 03:46:54;;;;;;;8.10;1.57;;;5.20;99.90;;;;;;5004440;28;20215;-83
2021/11/29 03:49:21;;;;;;;7.60;2.00;;;5.20;99.90;;;;;;4995666;28;20620;-83
2021/11/29 03:51:48;;;;;;;10.80;2.73;;;5.20;99.90;;;;;;5002374;28;20199;-81
2021/11/29 03:54:15;;;;;;;7.70;1.20;;;5.20;99.90;;;;;;5016150;28;20203;-83
2021/11/29 03:56:42;;;;;;;4.60;1.20;;;5.10;99.90;;;;;;5013788;28;20833;-84
2021/11/29 03:59:09;;;;;;;3.33;1.23;;;5.20;99.90;;;;;;5014320;28;20211;-85
2021/11/29 04:01:36;;;;;;;6.00;1.07;;;5.10;99.90;;;;;;5014595;28;20253;-82
2021/11/29 04:04:05;;;;;;;6.67;1.30;;;5.10;99.90;;;;;;5013915;28;20538;-86
2021/11/29 04:06:32;;;;;;;1.90;1.17;;;5.10;99.90;;;;;;5013793;28;20655;-82
2021/11/29 04:08:59;;;;;;;7.30;1.30;;;5.20;99.90;;;;;;5014188;28;20510;-84
2021/11/29 04:11:26;;;;;;;4.87;1.33;;;5.20;99.90;;;;;;5012890;28;20239;-81
2021/11/29 04:13:53;;;;;;;3.77;1.27;;;5.30;99.90;;;;;;5013891;28;20231;-84
2021/11/29 04:16:20;;;;;;;7.90;1.23;;;5.30;99.90;;;;;;5012985;28;20341;-84
2021/11/29 04:18:47;;;;;;;9.83;2.40;;;5.40;99.90;;;;;;5013438;28;20210;-85
2021/11/29 04:21:16;;;;;;;12.23;2.43;;;5.50;99.90;;;;;;4997285;28;20207;-85
2021/11/29 04:23:45;;;;;;;10.63;2.00;;;5.60;99.90;;;;;;4993885;28;20235;-83
2021/11/29 04:26:14;;;;;;;5.83;1.50;;;5.60;99.90;;;;;;5002656;28;20207;-86
2021/11/29 04:28:41;;;;;;;7.00;1.40;;;5.70;99.90;;;;;;5013902;28;20211;-87
2021/11/29 04:31:08;;;;;;;8.97;1.70;;;5.70;99.90;;;;;;5013481;28;20312;-83
2021/11/29 04:33:35;;;;;;;7.07;1.60;;;5.70;99.90;;;;;;5012005;28;20214;-88
2021/11/29 04:36:02;;;;;;;8.47;2.70;;;5.70;99.90;;;;;;5001214;28;20219;-85
2021/11/29 04:38:30;;;;;;;7.33;2.20;;;5.70;99.90;;;;;;4995172;28;20208;-85
2021/11/29 04:40:57;;;;;;;5.13;2.03;;;5.70;99.90;;;;;;5014156;28;20219;-87
2021/11/29 04:43:24;;;;;;;7.97;1.70;;;5.70;99.90;;;;;;5014411;28;20211;-86
2021/11/29 04:45:51;;;;;;;3.80;1.40;;;5.60;99.90;;;;;;5014316;28;20207;-84
2021/11/29 04:48:17;;;;;;;7.50;1.40;;;5.60;99.90;;;;;;5014326;28;20207;-87
2021/11/29 04:50:44;;;;;;;4.70;1.50;;;5.70;99.90;;;;;;5014016;28;20227;-87
2021/11/29 04:53:11;;;;;;;9.30;1.20;;;5.70;99.90;;;;;;5013524;28;20207;-86
2021/11/29 04:55:39;;;;;;;10.17;1.70;;;5.60;99.90;;;;;;5012450;28;20218;-87
2021/11/29 04:58:06;;;;;;;4.73;1.37;;;5.60;99.90;;;;;;5012418;28;20211;-87
2021/11/29 05:00:34;;;;;;;11.03;2.13;;;5.70;99.90;;;;;;5013475;28;20588;-87
2021/11/29 05:03:01;;;;;;;12.63;2.03;;;5.70;99.90;;;;;;5014097;28;20210;-86
2021/11/29 05:05:28;;;;;;;17.07;3.43;;;5.90;99.90;;;;;;5013118;28;20609;-86
2021/11/29 05:07:54;;;;;;;8.57;1.80;;;5.90;99.90;;;;;;5014451;28;20261;-88
2021/11/29 05:10:21;;;;;;;10.73;1.90;;;6.00;99.90;;;;;;5008057;28;20232;-88
2021/11/29 05:12:49;;;;;;;7.40;1.60;;;5.90;99.90;;;;;;4995002;28;20207;-90
2021/11/29 05:15:16;;;;;;;4.20;1.37;;;5.80;99.90;;;;;;5012710;28;20215;-88
2021/11/29 05:17:43;;;;;;;9.00;1.77;;;5.80;99.90;;;;;;5014132;28;20226;-91
2021/11/29 05:20:11;;;;;;;5.90;1.30;;;5.70;99.90;;;;;;5013906;28;20210;-87
2021/11/29 05:22:37;;;;;;;5.57;1.50;;;5.70;99.90;;;;;;5013839;28;20221;-89
2021/11/29 05:25:05;;;;;;;4.20;1.60;;;5.70;99.90;;;;;;5014104;28;20199;-91
2021/11/29 05:27:32;;;;;;;4.60;1.63;;;5.60;99.90;;;;;;5013472;28;20673;-90
2021/11/29 05:30:00;;;;;;;5.97;1.73;;;5.60;99.90;;;;;;5014282;28;20234;-87
2021/11/29 05:32:27;;;;;;;7.67;2.00;;;5.60;99.90;;;;;;5013623;28;20207;-84
2021/11/29 05:34:54;;;;;;;5.33;2.43;;;5.60;99.90;;;;;;5013084;28;20203;-86
2021/11/29 05:37:22;;;;;;;4.40;1.57;;;5.50;99.90;;;;;;5012200;28;20400;-86
2021/11/29 05:39:49;;;;;;;8.33;1.60;;;5.50;99.90;;;;;;5014027;28;20203;-88
2021/11/29 05:42:15;;;;;;;11.03;2.93;;;5.50;99.90;;;;;;5014622;28;20200;-90
2021/11/29 05:44:42;;;;;;;5.03;1.40;;;5.50;99.90;;;;;;5013044;28;20200;-85
2021/11/29 05:47:11;;;;;;;8.77;1.13;;;5.50;99.90;;;;;;5012850;28;20956;-89
2021/11/29 05:49:37;;;;;;;3.57;0.97;;;5.50;99.90;;;;;;4996955;28;20303;-84
2021/11/29 05:52:05;;;;;;;5.90;1.70;;;5.50;99.90;;;;;;4993451;28;20227;-91
2021/11/29 05:54:32;;;;;;;6.00;1.43;;;5.40;99.90;;;;;;5008008;28;20211;-91
2021/11/29 05:56:59;;;;;;;4.73;1.10;;;5.40;99.90;;;;;;5013551;28;20204;-91
2021/11/29 05:59:26;;;;;;;3.67;0.90;;;5.40;99.90;;;;;;5013325;28;20209;-91
2021/11/29 06:01:53;;;;;;;5.93;1.17;;;5.40;99.90;;;;;;4993481;28;20295;-88
2021/11/29 06:04:21;;;;;;;7.10;1.20;;;5.40;99.90;;;;;;4993628;28;20215;-85
2021/11/29 06:06:48;;;;;;;3.83;1.23;;;5.40;99.90;;;;;;4990287;28;20675;-86
2021/11/29 06:09:15;;;;;;;7.90;1.80;;;5.30;99.90;;;;;;4992077;28;20211;-88
2021/11/29 06:11:42;;;;;;;6.93;1.73;;;5.10;99.90;;;;;;5010652;28;20293;-90
2021/11/29 06:14:09;;;;;;;6.80;1.20;;;5.00;99.90;;;;;;5013006;28;20211;-89
2021/11/29 06:16:36;;;;;;;7.40;1.47;;;5.00;99.90;;;;;;5012761;28;20234;-87
2021/11/29 06:19:03;;;;;;;7.60;2.33;;;4.90;99.90;;;;;;5012131;28;20620;-88
2021/11/29 06:21:32;;;;;;;7.33;2.07;;;4.90;99.90;;;;;;5013255;28;20208;-90
2021/11/29 06:23:58;;;;;;;10.33;1.80;;;4.90;99.90;;;;;;5012175;28;20231;-87
2021/11/29 06:26:27;;;;;;;4.37;1.43;;;4.90;99.90;;;;;;5012297;28;20207;-85
2021/11/29 06:28:54;;;;;;;6.07;1.50;;;5.00;99.90;;;;;;5012400;28;20211;-89
2021/11/29 06:31:21;;;;;;;5.77;1.60;;;5.00;99.90;;;;;;5012490;28;20227;-85
2021/11/29 06:33:48;;;;;;;8.03;1.90;;;5.10;99.90;;;;;;5012359;28;20607;-84
2021/11/29 06:36:15;;;;;;;9.00;1.80;;;5.10;99.90;;;;;;5012227;28;20203;-86
2021/11/29 06:38:47;;;;;;;12.47;1.70;;;5.20;99.90;;;;;;5011811;28;20212;-88
2021/11/29 06:41:13;;;;;;;8.97;1.80;;;5.20;99.90;;;;;;4992288;28;20215;-82
2021/11/29 06:43:40;;;;;;;13.77;1.60;;;5.30;99.90;;;;;;5002402;28;20242;-86
2021/11/29 06:46:07;;;;;;;6.57;2.40;;;5.30;99.90;;;;;;5008373;28;20196;-88
2021/11/29 06:48:34;;;;;;;11.23;1.90;;;5.40;99.90;;;;;;5019210;23;20231;-85
2021/11/29 06:51:01;;;;;;;9.57;1.57;;;5.30;99.90;;;;;;5011791;28;20313;-94
2021/11/29 06:53:27;;;;;;;7.30;2.73;;;5.30;99.90;;;;;;4994369;28;20196;-90
2021/11/29 06:55:56;;;;;;;4.63;1.13;;;5.30;99.90;;;;;;4992967;28;20196;-88
2021/11/29 06:58:23;;;;;;;9.73;1.27;;;5.40;99.90;;;;;;4998322;28;20215;-89
2021/11/29 07:00:50;;;;;;;3.77;1.20;;;5.40;99.90;;;;;;5012395;28;20195;-91
2021/11/29 07:03:17;;;;;;;6.33;1.37;;;5.40;99.90;;;;;;5010452;28;20203;-88
2021/11/29 07:05:44;;;;;;;8.53;1.53;;;5.50;99.90;;;;;;5009277;28;20199;-83
2021/11/29 07:08:11;;;;;;;11.47;2.00;;;5.50;99.90;;;;;;4997913;28;20208;-89
2021/11/29 07:10:41;;;;;;;11.73;1.77;;;5.40;99.90;;;;;;4989132;28;20242;-87
2021/11/29 07:13:10;;;;;;;7.67;1.90;;;5.50;99.90;;;;;;4992212;28;20227;-87
2021/11/29 07:15:38;;;;;;;5.00;1.63;;;5.40;99.90;;;;;;4990662;28;20619;-82
2021/11/29 07:18:05;;;;;;;6.70;1.67;;;5.60;99.90;;;;;;4990783;28;20231;-84
2021/11/29 07:20:32;;;;;;;11.57;3.30;;;5.60;99.90;;;;;;4990474;28;20238;-83
2021/11/29 07:22:59;;;;;;;15.43;3.77;;;5.70;99.90;;;;;;4989941;28;20236;-88
2021/11/29 07:25:26;;;;;;;6.47;1.60;;;5.70;99.90;;;;;;5000392;28;20207;-86
2021/11/29 07:27:53;;;;;;;11.50;2.10;;;5.80;99.90;;;;;;5009659;28;20214;-87
2021/11/29 07:30:24;;;;;;;14.47;2.10;;;5.90;99.90;;;;;;5009082;28;20509;-89
2021/11/29 07:32:53;;;;;;;10.07;2.30;;;5.90;99.90;;;;;;5012231;28;20248;-87
2021/11/29 07:35:23;;;;;;;8.43;1.90;;;5.90;99.90;;;;;;4997428;28;20270;-84
2021/11/29 07:37:50;;;;;;;9.53;1.70;;;6.00;99.90;;;;;;4990834;28;20208;-87
2021/11/29 07:40:18;;;;;;;5.80;1.80;;;6.00;99.90;;;;;;4988147;28;20215;-89
2021/11/29 07:42:45;;;;;;;10.73;1.60;;;6.00;99.90;;;;;;5002960;28;20206;-87
2021/11/29 07:45:13;;;;;;;7.53;1.60;;;6.10;99.90;;;;;;4993110;28;20343;-88
2021/11/29 07:47:42;;;;;;;15.33;2.63;;;6.10;99.90;;;;;;4993828;28;20227;-88
2021/11/29 07:50:11;;;;;;;8.63;2.07;;;6.10;99.90;;;;;;5012314;28;20292;-89
2021/11/29 07:52:38;;;;;;;14.63;2.13;;;6.20;99.90;;;;;;5010989;28;20223;-88
2021/11/29 07:55:07;;;;;;;9.73;1.60;;;6.20;99.90;;;;;;5011353;28;20287;-88
2021/11/29 07:57:35;;;;;;;8.33;2.00;;;6.10;99.90;;;;;;5011033;28;20211;-89
2021/11/29 08:00:04;;;;;;;7.43;1.50;;;6.10;99.90;;;;;;5010448;28;20235;-91
2021/11/29 08:02:31;;;;;;;5.53;1.30;;;5.90;99.90;;;;;;5011321;28;20235;-89
2021/11/29 08:05:00;;;;;;;5.27;0.90;;;5.80;99.90;;;;;;5011219;28;20210;-85
2021/11/29 08:07:27;;;;;;;7.40;1.00;;;5.80;99.90;;;;;;5011230;28;20211;-84
2021/11/29 08:09:53;;;;;;;5.00;1.43;;;5.60;99.90;;;;;;5011351;28;20499;-87
2021/11/29 08:12:20;;;;;;;4.80;1.00;;;5.50;99.90;;;;;;5013962;28;20223;-85
2021/11/29 08:14:48;;;;;;;3.33;1.40;;;5.50;99.90;;;;;;5011670;28;20195;-88
2021/11/29 08:17:14;;;;;;;5.50;1.73;;;5.40;99.90;;;;;;5010354;28;20222;-88
2021/11/29 08:19:41;;;;;;;4.23;0.73;;;5.40;99.90;;;;;;4985417;28;20851;-88
2021/11/29 08:22:09;;;;;;;3.13;0.90;;;5.30;99.90;;;;;;5010230;28;20203;-89
2021/11/29 08:24:37;;;;;;;0.80;0.60;;;5.30;99.90;;;;;;5010649;28;20398;-83
2021/11/29 08:27:04;;;;;;;1.77;0.50;;;5.40;99.90;;;;;;5010369;28;20646;-87
2021/11/29 08:29:31;;;;;;;2.73;0.70;;;5.30;99.90;;;;;;5010620;28;20198;-88
2021/11/29 08:32:02;;;;;;;0.60;0.50;;;5.30;99.90;;;;;;5010158;28;20242;-84
2021/11/29 08:34:28;;;;;;;2.60;0.63;;;5.30;99.90;;;;;;5010566;28;20192;-83
2021/11/29 08:36:55;;;;;;;3.07;0.60;;;5.30;99.90;;;;;;5011076;28;20705;-84
2021/11/29 08:39:23;;;;;;;2.33;0.60;;;5.30;99.90;;;;;;5011085;28;20564;-90
2021/11/29 08:41:50;;;;;;;3.00;1.00;;;5.30;99.90;;;;;;5010612;28;20211;-87
2021/11/29 08:44:17;;;;;;;7.27;0.90;;;5.30;99.90;;;;;;5014855;28;20198;-86
2021/11/29 08:46:48;;;;;;;6.53;1.43;;;5.30;99.90;;;;;;4998686;28;20306;-82
2021/11/29 08:49:16;;;;;;;7.53;1.30;;;5.40;99.90;;;;;;4994951;28;20216;-84
2021/11/29 08:51:43;;;;;;;1.80;0.93;;;5.40;99.90;;;;;;4994618;28;20224;-85
2021/11/29 08:54:10;;;;;;;4.17;1.03;;;5.40;99.90;;;;;;5000180;28;20207;-84
2021/11/29 08:56:39;;;;;;;4.83;1.20;;;5.40;99.90;;;;;;5013959;28;20203;-87
2021/11/29 08:59:06;;;;;;;2.40;0.93;;;5.40;99.90;;;;;;5014360;28;20530;-87
2021/11/29 09:01:33;;;;;;;4.33;1.10;;;5.50;99.90;;;;;;5013921;28;20203;-84
2021/11/29 09:04:01;;;;;;;2.60;0.90;;;5.50;99.90;;;;;;5014392;28;20207;-85
2021/11/29 09:06:28;;;;;;;3.63;0.70;;;5.50;99.90;;;;;;5014860;28;20728;-86
2021/11/29 09:08:55;;;;;;;2.70;0.80;;;5.50;99.90;;;;;;5013924;28;20213;-86
2021/11/29 09:11:22;;;;;;;0.83;0.60;;;5.50;99.90;;;;;;5014041;28;20230;-84
2021/11/29 09:13:50;;;;;;;3.97;1.10;;;5.50;99.90;;;;;;5016257;28;20206;-86
2021/11/29 09:16:18;;;;;;;4.97;0.97;;;5.40;99.90;;;;;;5018349;28;20223;-84
2021/11/29 09:18:46;;;;;;;4.10;0.90;;;5.50;99.90;;;;;;5006748;28;20216;-85
2021/11/29 09:21:15;;;;;;;6.37;1.40;;;5.50;99.90;;;;;;4996339;28;20211;-82
2021/11/29 09:23:43;;;;;;;10.17;1.53;;;5.50;99.90;;;;;;5008777;28;20674;-83
2021/11/29 09:26:10;;;;;;;5.47;1.20;;;5.60;99.90;;;;;;5013055;28;20211;-84
2021/11/29 09:28:38;;;;;;;3.77;1.30;;;5.60;99.90;;;;;;5013277;28;20290;-86
2021/11/29 09:31:08;;;;;;;3.77;0.80;;;5.70;99.90;;;;;;5012797;28;20218;-82
2021/11/29 09:33:35;;;;;;;5.37;1.00;;;5.80;99.90;;;;;;5011398;28;20703;-84
2021/11/29 09:36:04;;;;;;;4.90;0.97;;;5.90;99.90;;;;;;5013458;28;20200;-86
2021/11/29 09:38:31;;;;;;;3.87;1.00;;;6.00;99.90;;;;;;5012516;28;20230;-81
2021/11/29 09:40:58;;;;;;;3.87;0.93;;;6.10;99.90;;;;;;5012239;28;20203;-82
2021/11/29 09:43:25;;;;;;;4.57;0.90;;;6.00;99.90;;;;;;5012250;28;20303;-82
2021/11/29 09:45:53;;;;;;;4.60;0.80;;;6.00;99.90;;;;;;5012245;28;20199;-82
2021/11/29 09:48:21;;;;;;;6.57;1.10;;;6.00;99.90;;;;;;5011199;28;20239;-83
2021/11/29 09:50:53;;;;;;;3.00;0.87;;;6.10;99.90;;;;;;5012644;28;20214;-84
2021/11/29 09:53:22;;;;;;;8.27;2.03;;;6.20;99.90;;;;;;5011376;28;20769;-83
2021/11/29 09:55:49;;;;;;;4.07;0.97;;;6.30;99.90;;;;;;4999247;28;20211;-82
2021/11/29 09:58:16;;;;;;;6.27;1.27;;;6.40;99.90;;;;;;4993145;28;20628;-84
2021/11/29 10:00:48;;;;;;;4.03;1.00;;;6.50;99.90;;;;;;4997146;28;20593;-85
2021/11/29 10:03:15;;;;;;;5.20;0.90;;;6.60;99.90;;;;;;4993487;28;20204;-84
2021/11/29 10:05:44;;;;;;;4.70;2.07;;;6.70;99.90;;;;;;4993296;28;20510;-85
2021/11/29 10:08:22;;;;;;;3.70;0.80;;;6.70;99.90;;;;;;5009544;28;20207;-84
2021/11/29 10:10:51;;;;;;;6.87;2.20;;;6.80;99.90;;;;;;5019817;22;20265;-82
2021/11/29 10:13:18;;;;;;;7.57;1.13;;;6.90;99.90;;;;;;5011494;28;20918;-84
2021/11/29 10:15:46;;;;;;;7.57;1.10;;;7.00;99.90;;;;;;5011607;28;20211;-83
2021/11/29 10:18:15;;;;;;;5.53;1.30;;;7.20;99.90;;;;;;4991855;28;20208;-83
2021/11/29 10:20:56;;;;;;;7.83;2.37;;;7.20;99.90;;;;;;4984922;28;20300;-83
2021/11/29 10:23:26;;;;;;;2.37;0.70;;;7.30;99.90;;;;;;4971618;28;20211;-84
2021/11/29 10:25:54;;;;;;;4.27;1.17;;;7.30;99.90;;;;;;4979179;28;20204;-82
2021/11/29 10:28:26;;;;;;;2.30;0.73;;;7.30;99.90;;;;;;4985753;28;20239;-85
2021/11/29 10:31:14;;;;;;;5.43;1.13;;;7.20;99.90;;;;;;4971038;28;20590;-86
2021/11/29 10:33:50;;;;;;;5.33;1.10;;;7.10;99.90;;;;;;4972025;28;20189;-89
2021/11/29 10:36:19;;;;;;;5.23;1.20;;;7.10;99.90;;;;;;4972653;28;20196;-88
2021/11/29 10:38:51;;;;;;;6.43;1.57;;;7.10;99.90;;;;;;4984361;28;20219;-86
2021/11/29 10:41:24;;;;;;;3.97;0.90;;;7.10;99.90;;;;;;4992411;28;20196;-83
2021/11/29 10:43:51;;;;;;;3.70;1.07;;;7.00;99.90;;;;;;4991416;28;20208;-87
2021/11/29 10:46:20;;;;;;;4.90;1.00;;;7.00;99.90;;;;;;4979387;28;20219;-84
2021/11/29 10:48:47;;;;;;;7.67;1.23;;;7.10;99.90;;;;;;4973604;28;20207;-89
2021/11/29 10:51:17;;;;;;;4.53;1.20;;;7.10;99.90;;;;;;4981692;28;20199;-88
2021/11/29 10:53:54;;;;;;;9.83;1.33;;;7.10;99.90;;;;;;4992874;28;20585;-89
2021/11/29 10:56:22;;;;;;;5.83;1.10;;;7.20;99.90;;;;;;4998293;28;20202;-89
2021/11/29 10:58:51;;;;;;;11.43;1.83;;;7.30;99.90;;;;;;5012984;28;20214;-88
2021/11/29 11:01:31;;;;;;;4.37;1.83;;;7.40;99.90;;;;;;4978803;28;20212;-85
2021/11/29 11:03:59;;;;;;;3.20;1.10;;;7.40;99.90;;;;;;4982996;28;20274;-84
2021/11/29 11:06:27;;;;;;;3.60;1.07;;;7.50;99.90;;;;;;4993128;28;20212;-81
2021/11/29 11:08:56;;;;;;;4.97;0.83;;;7.50;99.90;;;;;;4991771;28;20836;-87
2021/11/29 11:11:33;;;;;;;4.00;1.00;;;7.50;99.90;;;;;;4984828;28;20248;-85
2021/11/29 11:14:02;;;;;;;5.17;0.93;;;7.40;99.90;;;;;;4972872;28;20211;-86
2021/11/29 11:16:56;;;;;;;5.47;1.13;;;7.40;99.90;;;;;;4988737;28;20255;-86
2021/11/29 11:19:32;;;;;;;4.77;1.20;;;7.50;99.90;;;;;;4990915;28;20287;-89
2021/11/29 11:22:02;;;;;;;2.17;1.00;;;7.50;99.90;;;;;;4992850;28;20192;-88
2021/11/29 11:24:33;;;;;;;3.83;1.43;;;7.50;99.90;;;;;;4991816;28;20215;-85
2021/11/29 11:27:02;;;;;;;2.80;1.20;;;7.40;99.90;;;;;;4992124;28;20222;-86
2021/11/29 11:29:56;;;;;;;2.70;1.07;;;7.40;99.90;;;;;;4991333;28;20215;-85
2021/11/29 11:32:34;;;;;;;1.67;1.00;;;7.50;99.90;;;;;;4991495;28;20234;-86
2021/11/29 11:35:05;;;;;;;3.63;1.03;;;7.40;99.90;;;;;;4991527;28;20204;-86
2021/11/29 11:37:34;;;;;;;2.00;0.80;;;7.40;99.90;;;;;;4991556;28;20516;-86
2021/11/29 11:40:05;;;;;;;3.27;0.90;;;7.40;99.90;;;;;;4990466;28;20204;-83
2021/11/29 11:42:31;;;;;;;2.10;0.80;;;7.40;99.90;;;;;;4971449;28;20199;-85
2021/11/29 11:44:58;;;;;;;1.97;0.63;;;7.30;99.90;;;;;;4974438;28;20200;-86
2021/11/29 11:47:27;;;;;;;3.73;1.10;;;7.30;99.90;;;;;;4992041;28;20200;-85
2021/11/29 11:49:55;;;;;;;3.47;1.43;;;7.30;99.90;;;;;;4991585;28;20207;-86
2021/11/29 11:52:22;;;;;;;4.77;1.00;;;7.30;99.90;;;;;;4992411;28;20591;-85
2021/11/29 11:54:52;;;;;;;6.57;2.07;;;7.40;99.90;;;;;;4992280;28;20226;-85
2021/11/29 11:57:22;;;;;;;1.37;0.83;;;7.30;99.90;;;;;;4992293;28;20295;-85
2021/11/29 12:00:07;;;;;;;2.70;1.13;;;7.40;99.90;;;;;;4992148;28;20200;-87
2021/11/29 12:02:51;;;;;;;1.20;0.70;;;7.30;99.90;;;;;;4983939;28;20200;-84
2021/11/29 12:05:21;;;;;;;2.43;0.67;;;7.20;99.90;;;;;;4992116;28;20203;-86
2021/11/29 12:07:48;;;;;;;3.47;0.60;;;7.20;99.90;;;;;;4990821;28;20196;-85
2021/11/29 12:10:41;;;;;;;1.40;0.60;;;7.20;99.90;;;;;;4992555;28;20240;-85
2021/11/29 12:13:13;;;;;;;2.97;0.90;;;7.10;99.90;;;;;;4954463;28;20533;-84
2021/11/29 12:15:43;;;;;;;1.73;0.80;;;7.20;99.90;;;;;;4972226;28;20203;-84
2021/11/29 12:18:12;;;;;;;1.20;0.60;;;7.10;99.90;;;;;;4977879;28;20223;-86
2021/11/29 12:20:40;;;;;;;1.87;0.80;;;7.20;99.90;;;;;;4993492;28;20215;-85
2021/11/29 12:23:40;;;;;;;0.73;0.50;;;7.20;99.90;;;;;;4995152;28;20245;-86
2021/11/29 12:26:07;;;;;;;3.73;1.17;;;7.20;99.90;;;;;;4993288;28;20216;-84
2021/11/29 12:28:40;;;;;;;7.07;1.87;;;7.20;99.90;;;;;;5013370;28;20218;-84
2021/11/29 12:31:35;;;;;;;3.10;1.00;;;7.20;99.90;;;;;;4996939;28;20208;-84
2021/11/29 12:34:05;;;;;;;2.07;0.90;;;7.20;99.90;;;;;;4995181;28;20212;-85
2021/11/29 12:37:06;;;;;;;2.13;0.90;;;7.20;99.90;;;;;;4977662;28;20290;-82
2021/11/29 12:39:50;;;;;;;1.83;1.00;;;7.20;99.90;;;;;;4987734;28;20214;-86
2021/11/29 12:42:53;;;;;;;3.97;1.17;;;7.30;99.90;;;;;;4994006;28;20489;-85
2021/11/29 12:45:26;;;;;;;3.60;1.10;;;7.30;99.90;;;;;;4981012;28;20289;-85
2021/11/29 12:47:56;;;;;;;3.80;1.57;;;7.30;99.90;;;;;;4974310;28;20200;-83
2021/11/29 12:50:44;;;;;;;1.93;1.23;;;7.40;99.90;;;;;;4974401;28;20492;-83
2021/11/29 12:53:20;;;;;;;3.17;1.20;;;7.50;99.90;;;;;;4989772;28;20234;-83
2021/11/29 12:55:51;;;;;;;3.73;1.00;;;7.60;99.90;;;;;;4993637;28;20243;-83
2021/11/29 12:58:27;;;;;;;2.60;1.40;;;7.70;99.90;;;;;;4993444;28;20210;-85
2021/11/29 13:01:16;;;;;;;4.17;0.90;;;7.70;99.90;;;;;;4983171;28;20239;-84
2021/11/29 13:03:45;;;;;;;2.63;0.93;;;7.70;99.90;;;;;;4974106;28;20201;-84